Data for 03/19/2017

Time Sea-Level Adjusted Pressure Absolute Pressure Temperature Relative Humidity Dew Point   
(mb) (inHg) (mb) (inHg) (C) (F) (%) (C) (F)
00:05 1014 29.94 843 24.89 10.6 51 45 -0.8 30.5
00:10 1014 29.94 843 24.89 10.6 51.1 44 -1.1 30.1
00:15 1014 29.94 843 24.89 10.8 51.5 44 -0.9 30.3
00:20 1014 29.94 843 24.89 10.9 51.7 42 -1.4 29.5
00:25 1014 29.94 843 24.89 11.3 52.3 42 -1 30.2
00:30 1014 29.94 843 24.89 11.3 52.3 42 -1.2 29.9
00:35 1014 29.94 843 24.89 11.2 52.2 42 -1 30.2
00:40 1014 29.94 843 24.89 11.1 51.9 42 -1.3 29.7
00:45 1014 29.94 843 24.89 11.2 52.2 40 -1.7 29
00:50 1014 29.94 843 24.89 11.6 52.8 42 -0.9 30.3
00:55 1014 29.94 843 24.89 11.3 52.3 43 -0.8 30.6
01:00 1014 29.94 843 24.89 11.2 52.1 44 -0.6 30.9
01:05 1014 29.94 843 24.89 10.8 51.4 43 -1.1 30
01:10 1014 29.94 843 24.89 11.1 51.9 42 -1.3 29.7
01:15 1014 29.94 843 24.89 11.4 52.5 41 -1.2 29.8
01:20 1014 29.94 843 24.89 11.4 52.5 42 -1.2 29.9
01:25 1014 29.94 843 24.89 11.4 52.6 41 -1.2 29.9
01:30 1014 29.94 843 24.89 11.4 52.5 42 -1 30.1
01:35 1014 29.94 843 24.89 11.3 52.4 43 -0.9 30.5
01:40 1014 29.94 843 24.89 11.2 52.1 42 -1.1 30
01:45 1014 29.94 843 24.89 11.3 52.3 42 -1 30.1
01:50 1014 29.94 843 24.89 11.3 52.3 42 -1.2 29.9
01:55 1014 29.94 843 24.89 11.3 52.3 42 -1.1 29.9
02:00 1014 29.94 843 24.89 11.3 52.3 42 -1.2 29.9
02:05 1014 29.94 844 24.92 11.4 52.4 41 -1.2 29.8
02:10 1014 29.94 844 24.92 11.4 52.6 42 -1.1 30
02:15 1015 29.97 844 24.92 11.5 52.6 41 -1.2 29.8
02:20 1015 29.97 844 24.92 11.6 52.8 41 -1.2 29.8
02:25 1015 29.97 844 24.92 11.7 53 40 -1.3 29.6
02:30 1015 29.97 844 24.92 11.9 53.4 40 -1.4 29.6
02:35 1015 29.97 844 24.92 11.4 52.6 45 0.1 32.1
02:40 1015 29.97 844 24.92 10.1 50.3 46 -0.9 30.3
02:45 1015 29.97 844 24.92 10 50.1 46 -1.1 30.1
02:50 1015 29.97 844 24.92 10.1 50.2 46 -1 30.3
02:55 1015 29.97 844 24.92 10.1 50.3 46 -0.8 30.6
03:00 1015 29.97 844 24.92 10.2 50.3 47 -0.6 31
03:05 1015 29.97 844 24.92 10.2 50.3 48 -0.3 31.5
03:10 1015 29.97 844 24.92 10.6 51.2 47 -0 31.9
03:15 1015 29.97 844 24.92 11.1 51.9 47 0.1 32.2
03:20 1015 29.97 844 24.92 11.2 52.1 46 -0.1 31.9
03:25 1015 29.97 844 24.92 10.3 50.5 50 0.4 32.6
03:30 1015 29.97 844 24.92 10.2 50.4 50 0.2 32.4
03:35 1015 29.97 844 24.92 10.2 50.3 51 0.5 32.8
03:40 1015 29.97 844 24.92 9.4 48.9 50 -0.4 31.3
03:45 1015 29.97 844 24.92 9.4 48.9 51 -0.3 31.5
03:50 1015 29.97 844 24.92 9.5 49 50 -0.3 31.4
03:55 1015 29.97 844 24.92 9.8 49.6 49 -0.4 31.3
04:00 1015 29.97 845 24.95 10.1 50.1 49 -0.2 31.6
04:05 1015 29.97 845 24.95 10.2 50.4 48 -0.1 31.7
04:10 1015 29.97 845 24.95 10.2 50.4 48 -0.2 31.7
04:15 1016 30 845 24.95 10.2 50.3 48 -0.2 31.7
04:20 1016 30 845 24.95 10.1 50.1 49 -0.1 31.7
04:25 1016 30 845 24.95 9.9 49.9 50 0 32
04:30 1016 30 845 24.95 9.8 49.6 51 0 32.1
04:35 1016 30 845 24.95 9.6 49.3 51 0.1 32.1
04:40 1016 30 845 24.95 9.5 49.1 52 0.2 32.4
04:45 1016 30 845 24.95 9.2 48.5 54 0.3 32.5
04:50 1016 30 845 24.95 8.9 48 55 0.4 32.7
04:55 1016 30 845 24.95 8.6 47.4 57 0.5 32.9
05:00 1016 30 845 24.95 8.3 46.9 58 0.6 33.1
05:05 1016 30 845 24.95 8 46.4 60 0.6 33.1
05:10 1016 30 845 24.95 7.8 46 61 0.8 33.4
05:15 1016 30 846 24.98 7.6 45.6 63 0.9 33.7
05:20 1017 30.03 846 24.98 7.2 45 65 1.2 34.1
05:25 1017 30.03 846 24.98 6.9 44.4 67 1.2 34.2
05:30 1017 30.03 846 24.98 6.7 44.1 69 1.5 34.7
05:35 1017 30.03 846 24.98 6.5 43.8 71 1.6 34.9
05:40 1017 30.03 846 24.98 6.4 43.5 71 1.6 34.9
05:45 1017 30.03 847 25.01 6.2 43.2 74 1.9 35.4
05:50 1017 30.03 847 25.01 6 42.9 76 2.1 35.8
05:55 1018 30.06 847 25.01 5.8 42.5 76 1.9 35.4
06:00 1018 30.06 847 25.01 5.7 42.3 78 2.2 36
06:05 1018 30.06 847 25.01 5.5 42 79 2.2 35.9
06:10 1018 30.06 847 25.01 5.6 42.1 76 1.7 35.1
06:15 1018 30.06 847 25.01 5.9 42.7 77 2.3 36.1
06:20 1018 30.06 847 25.01 6 42.8 77 2.2 36
06:25 1018 30.06 847 25.01 5.9 42.6 78 2.4 36.4
06:30 1018 30.06 847 25.01 5.7 42.3 81 2.7 36.9
06:35 1018 30.06 847 25.01 5.6 42.1 82 2.8 37
06:40 1018 30.06 847 25.01 5.6 42 83 3 37.3
06:45 1018 30.06 847 25.01 5.5 41.9 84 3 37.3
06:50 1018 30.06 847 25.01 5.4 41.8 84 3 37.4
06:55 1018 30.06 847 25.01 5.5 41.9 83 2.8 37.1
07:00 1018 30.06 847 25.01 5.6 42.1 82 2.8 37.1
07:05 1018 30.06 847 25.01 5.7 42.2 81 2.7 36.9
07:10 1018 30.06 848 25.04 5.7 42.3 83 3.1 37.5
07:15 1018 30.06 848 25.04 5.7 42.2 83 3.1 37.6
07:20 1018 30.06 848 25.04 5.6 42.1 84 3.1 37.6
07:25 1019 30.09 848 25.04 5.6 42.2 84 3.2 37.8
07:30 1019 30.09 848 25.04 5.6 42.1 84 3.2 37.7
07:35 1019 30.09 848 25.04 5.7 42.2 85 3.3 38
07:40 1019 30.09 848 25.04 5.8 42.5 85 3.4 38.2
07:45 1019 30.09 848 25.04 5.9 42.6 84 3.4 38.1
07:50 1019 30.09 848 25.04 5.8 42.5 83 3.2 37.8
07:55 1019 30.09 848 25.04 5.8 42.4 84 3.2 37.8
08:00 1019 30.09 848 25.04 5.8 42.4 84 3.3 37.9
08:05 1019 30.09 848 25.04 5.8 42.5 83 3.3 37.9
08:10 1019 30.09 848 25.04 5.7 42.2 84 3.2 37.8
08:15 1019 30.09 848 25.04 5.5 41.9 86 3.3 37.9
08:20 1019 30.09 848 25.04 5.4 41.7 86 3.2 37.8
08:25 1019 30.09 848 25.04 5.6 42 87 3.6 38.5
08:30 1019 30.09 848 25.04 5.8 42.4 87 3.8 38.8
08:35 1019 30.09 848 25.04 5.8 42.5 86 3.6 38.6
08:40 1019 30.09 848 25.04 5.8 42.4 84 3.3 37.9
08:45 1019 30.09 848 25.04 5.8 42.4 84 3.2 37.8
08:50 1019 30.09 848 25.04 6 42.8 83 3.4 38.1
08:55 1019 30.09 848 25.04 6.3 43.3 83 3.7 38.6
09:00 1019 30.09 848 25.04 6.6 43.9 80 3.5 38.2
09:05 1019 30.09 848 25.04 6.6 43.9 80 3.4 38.1
09:10 1019 30.09 848 25.04 6.9 44.4 79 3.5 38.3
09:15 1019 30.09 848 25.04 7.1 44.8 79 3.8 38.8
09:20 1019 30.09 848 25.04 7.5 45.4 78 3.9 39
09:25 1018 30.06 848 25.04 8 46.4 76 4 39.2
09:30 1018 30.06 848 25.04 7.9 46.2 75 3.7 38.7
09:35 1018 30.06 848 25.04 8 46.4 79 4.6 40.3
09:40 1019 30.09 848 25.04 8.1 46.5 75 3.9 39.1
09:45 1019 30.09 848 25.04 8 46.4 75 3.9 38.9
09:50 1019 30.09 848 25.04 8.1 46.5 75 3.9 39.1
09:55 1019 30.09 848 25.04 8.1 46.7 75 4 39.2
10:00 1019 30.09 848 25.04 8.4 47.2 73 3.9 39
10:05 1019 30.09 848 25.04 8.6 47.5 71 3.6 38.4
10:10 1019 30.09 848 25.04 8.7 47.7 70 3.6 38.4
10:15 1019 30.09 848 25.04 8.8 47.8 71 3.7 38.7
10:20 1019 30.09 848 25.04 9 48.2 69 3.6 38.6
10:25 1019 30.09 848 25.04 9.2 48.5 69 3.8 38.9
10:30 1019 30.09 848 25.04 9.5 49.1 69 4.2 39.5
10:35 1019 30.09 848 25.04 9.7 49.5 66 3.7 38.6
10:40 1019 30.09 848 25.04 9.8 49.6 65 3.5 38.4
10:45 1019 30.09 848 25.04 9.8 49.7 63 3.1 37.6
10:50 1019 30.09 848 25.04 10.3 50.5 59 2.7 36.8
10:55 1019 30.09 848 25.04 10.1 50.2 61 3 37.5
11:00 1019 30.09 848 25.04 10.5 50.8 59 2.8 37
11:05 1018 30.06 848 25.04 10.8 51.5 58 2.9 37.2
11:10 1018 30.06 848 25.04 11.8 53.3 52 2.4 36.3
11:15 1018 30.06 848 25.04 11.6 53 57 3.4 38.1
11:20 1018 30.06 848 25.04 11.3 52.3 56 2.9 37.1
11:25 1018 30.06 848 25.04 11.7 53 56 3.2 37.8
11:30 1018 30.06 848 25.04 11.7 53 57 3.5 38.4
11:35 1018 30.06 848 25.04 11.8 53.3 56 3.5 38.2
11:40 1018 30.06 848 25.04 12.3 54.1 55 3.4 38.2
11:45 1018 30.06 848 25.04 12.2 53.9 55 3.3 38
11:50 1018 30.06 847 25.01 12.2 54 53 3.1 37.6
11:55 1018 30.06 847 25.01 11.7 53.1 56 3.4 38.1
12:00 1018 30.06 847 25.01 11.8 53.2 56 3.4 38.1
12:05 1018 30.06 847 25.01 11.8 53.2 56 3.2 37.8
12:10 1018 30.06 847 25.01 11.6 52.8 57 3.5 38.2
12:15 1018 30.06 847 25.01 11.7 53 58 3.8 38.9
12:20 1018 30.06 847 25.01 11.7 53 58 3.7 38.6
12:25 1018 30.06 847 25.01 11.9 53.4 56 3.5 38.3
12:30 1018 30.06 847 25.01 11.8 53.2 59 4.1 39.3
12:35 1018 30.06 848 25.04 10.1 50.1 69 4.6 40.3
12:40 1018 30.06 848 25.04 8.4 47.2 73 3.9 39
12:45 1018 30.06 848 25.04 8.5 47.4 69 3.3 37.9
12:50 1018 30.06 848 25.04 9 48.1 71 4.1 39.4
12:55 1018 30.06 848 25.04 9.4 48.9 70 4.3 39.7
13:00 1018 30.06 847 25.01 9.8 49.7 66 3.8 38.9
13:05 1018 30.06 848 25.04 10.1 50.2 63 3.4 38.1
13:10 1018 30.06 848 25.04 10 50.1 65 3.8 38.8
13:15 1018 30.06 848 25.04 9.9 49.8 66 3.9 39.1
13:20 1018 30.06 848 25.04 9.3 48.8 71 4.3 39.7
13:25 1018 30.06 848 25.04 8.7 47.7 73 4.1 39.4
13:30 1019 30.09 848 25.04 8.5 47.3 72 3.7 38.7
13:35 1018 30.06 848 25.04 8.5 47.2 75 4.3 39.7
13:40 1018 30.06 848 25.04 8.1 46.5 73 3.5 38.3
13:45 1018 30.06 848 25.04 8.2 46.8 67 2.5 36.4
13:50 1018 30.06 848 25.04 8.4 47.1 67 2.6 36.7
13:55 1018 30.06 847 25.01 8.2 46.8 71 3.2 37.8
14:00 1018 30.06 848 25.04 8.2 46.8 70 3.1 37.5
14:05 1018 30.06 848 25.04 8.8 47.9 71 3.8 38.8
14:10 1018 30.06 847 25.01 9.3 48.7 70 4 39.3
14:15 1018 30.06 847 25.01 9.6 49.2 65 3.4 38.2
14:20 1018 30.06 847 25.01 9.2 48.6 66 3.1 37.7
14:25 1018 30.06 847 25.01 9.4 49 66 3.5 38.3
14:30 1018 30.06 847 25.01 9.5 49.2 63 3 37.3
14:35 1018 30.06 847 25.01 9.9 49.7 65 3.7 38.6
14:40 1018 30.06 847 25.01 10.2 50.4 57 2.1 35.7
14:45 1018 30.06 847 25.01 10.6 51.1 60 3.1 37.7
14:50 1018 30.06 847 25.01 11.2 52.2 55 2.5 36.5
14:55 1017 30.03 847 25.01 11.9 53.4 52 2.5 36.5
15:00 1017 30.03 847 25.01 12.3 54.1 50 2.2 36
15:05 1017 30.03 847 25.01 12.3 54.1 52 2.8 37
15:10 1017 30.03 846 24.98 12.4 54.3 51 2.6 36.7
15:15 1017 30.03 846 24.98 12.4 54.3 52 2.8 37
15:20 1017 30.03 846 24.98 12.5 54.4 50 2.5 36.5
15:25 1017 30.03 847 25.01 12.2 54 56 3.7 38.7
15:30 1017 30.03 847 25.01 11.8 53.2 58 3.7 38.7
15:35 1018 30.06 847 25.01 11.4 52.6 58 3.6 38.5
15:40 1018 30.06 847 25.01 11.1 52.1 57 3.1 37.5
15:45 1018 30.06 847 25.01 10.9 51.7 57 2.7 36.9
15:50 1018 30.06 847 25.01 10.9 51.5 58 3 37.4
15:55 1018 30.06 847 25.01 10.7 51.2 57 2.6 36.6
16:00 1018 30.06 847 25.01 10.4 50.8 60 3 37.4
16:05 1018 30.06 847 25.01 10.1 50.2 65 3.8 38.8
16:10 1018 30.06 847 25.01 9.8 49.6 66 3.9 39
16:15 1018 30.06 847 25.01 9.4 48.9 69 4.1 39.3
16:20 1018 30.06 847 25.01 9.2 48.5 70 4 39.1
16:25 1018 30.06 847 25.01 9 48.2 69 3.6 38.5
16:30 1018 30.06 847 25.01 9 48.2 70 3.9 39
16:35 1018 30.06 847 25.01 8.8 47.9 72 4.1 39.4
16:40 1018 30.06 847 25.01 8.7 47.7 73 4.2 39.5
16:45 1018 30.06 847 25.01 8.7 47.6 73 4.1 39.5
16:50 1018 30.06 847 25.01 8.5 47.4 75 4.4 40
16:55 1018 30.06 847 25.01 8.3 47 79 5 40.9
17:00 1018 30.06 848 25.04 7.9 46.1 82 4.9 40.9
17:05 1019 30.09 848 25.04 7.5 45.4 83 4.8 40.6
17:10 1019 30.09 848 25.04 7.3 45.1 83 4.5 40.2
17:15 1019 30.09 848 25.04 7.1 44.8 82 4.3 39.7
17:20 1019 30.09 848 25.04 7.1 44.7 82 4.3 39.7
17:25 1019 30.09 848 25.04 7 44.6 81 4 39.2
17:30 1019 30.09 848 25.04 6.9 44.5 82 4.1 39.5
17:35 1019 30.09 849 25.07 6.8 44.2 84 4.3 39.7
17:40 1020 30.12 849 25.07 6.7 44 85 4.4 39.9
17:45 1020 30.12 849 25.07 6.6 43.8 86 4.3 39.8
17:50 1020 30.12 849 25.07 6.5 43.7 86 4.4 39.9
17:55 1020 30.12 849 25.07 6.4 43.6 88 4.5 40.1
18:00 1020 30.12 849 25.07 6.5 43.7 88 4.6 40.3
18:05 1020 30.12 849 25.07 6.4 43.5 87 4.4 40
18:10 1020 30.12 849 25.07 6.2 43.2 88 4.3 39.8
18:15 1020 30.12 849 25.07 6.2 43.2 87 4.3 39.7
18:20 1020 30.12 849 25.07 6.2 43.1 87 4.1 39.4
18:25 1020 30.12 849 25.07 6.1 43 87 4 39.3
18:30 1020 30.12 849 25.07 6 42.9 87 4 39.1
18:35 1020 30.12 849 25.07 6 42.8 87 4 39.2
18:40 1020 30.12 849 25.07 6.1 42.9 86 4 39.2
18:45 1020 30.12 849 25.07 6.1 42.9 85 3.7 38.6
18:50 1020 30.12 849 25.07 6 42.9 84 3.5 38.3
18:55 1020 30.12 849 25.07 6 42.9 84 3.5 38.2
19:00 1020 30.12 849 25.07 6 42.8 84 3.4 38.2
19:05 1020 30.12 849 25.07 6 42.7 84 3.5 38.3
19:10 1020 30.12 849 25.07 5.9 42.5 86 3.7 38.7
19:15 1020 30.12 849 25.07 5.6 42.1 87 3.6 38.5
19:20 1020 30.12 849 25.07 5.6 42.2 87 3.7 38.7
19:25 1020 30.12 849 25.07 5.7 42.2 88 3.8 38.8
19:30 1020 30.12 849 25.07 5.6 42 88 3.7 38.6
19:35 1020 30.12 849 25.07 5.5 42 87 3.6 38.5
19:40 1020 30.12 849 25.07 5.6 42 87 3.6 38.4
19:45 1020 30.12 850 25.1 5.7 42.2 87 3.6 38.5
19:50 1020 30.12 850 25.1 5.8 42.5 86 3.6 38.5
19:55 1020 30.12 850 25.1 5.7 42.3 87 3.7 38.7
20:00 1020 30.12 850 25.1 5.6 42.1 88 3.8 38.8
20:05 1020 30.12 849 25.07 5.5 41.9 89 3.8 38.9
20:10 1020 30.12 849 25.07 5.4 41.7 89 3.7 38.7
20:15 1020 30.12 849 25.07 5.3 41.5 89 3.6 38.5
20:20 1020 30.12 849 25.07 5.2 41.4 89 3.5 38.3
20:25 1020 30.12 849 25.07 5.2 41.3 88 3.3 38
20:30 1020 30.12 849 25.07 5.3 41.5 86 3.1 37.5
20:35 1020 30.12 849 25.07 5.3 41.6 86 3.1 37.6
20:40 1020 30.12 849 25.07 5.2 41.4 87 3.2 37.7
20:45 1020 30.12 849 25.07 5.2 41.3 87 3.2 37.7
20:50 1020 30.12 849 25.07 5.2 41.3 86 3 37.4
20:55 1020 30.12 849 25.07 5.2 41.4 84 2.8 37.1
21:00 1020 30.12 849 25.07 5.3 41.5 83 2.6 36.7
21:05 1020 30.12 849 25.07 5.3 41.6 83 2.7 36.9
21:10 1020 30.12 849 25.07 5.3 41.6 83 2.7 36.9
21:15 1020 30.12 849 25.07 5.2 41.3 84 2.8 37
21:20 1020 30.12 849 25.07 5.1 41.2 85 2.8 37
21:25 1020 30.12 849 25.07 5 41 86 2.8 37
21:30 1020 30.12 849 25.07 5 41 85 2.6 36.7
21:35 1020 30.12 849 25.07 5 41 86 2.8 37
21:40 1020 30.12 849 25.07 4.9 40.9 86 2.8 37.1
21:45 1020 30.12 849 25.07 5 41 85 2.6 36.7
21:50 1020 30.12 849 25.07 5 41 86 2.8 37.1
21:55 1020 30.12 849 25.07 4.9 40.8 86 2.8 37
22:00 1020 30.12 849 25.07 4.8 40.7 86 2.6 36.7
22:05 1020 30.12 849 25.07 4.9 40.8 85 2.6 36.7
22:10 1020 30.12 849 25.07 5 41 82 2.2 35.9
22:15 1020 30.12 849 25.07 5.2 41.4 81 2.3 36.1
22:20 1020 30.12 849 25.07 5.2 41.3 82 2.3 36.1
22:25 1020 30.12 849 25.07 5.1 41.2 82 2.3 36.2
22:30 1020 30.12 849 25.07 4.8 40.7 83 2.3 36.1
22:35 1020 30.12 849 25.07 4.7 40.4 84 2.3 36.1
22:40 1020 30.12 849 25.07 4.6 40.2 86 2.4 36.3
22:45 1020 30.12 849 25.07 4.4 39.8 86 2.3 36.1
22:50 1020 30.12 849 25.07 4.3 39.8 86 2.2 36
22:55 1020 30.12 849 25.07 4.2 39.6 87 2.2 36
23:00 1020 30.12 849 25.07 4.2 39.6 87 2.2 36
23:05 1020 30.12 849 25.07 4.2 39.6 87 2.2 35.9
23:10 1020 30.12 849 25.07 4.4 39.9 85 2.2 35.9
23:15 1020 30.12 849 25.07 4.5 40.1 85 2.2 35.9
23:20 1020 30.12 850 25.1 4.5 40.1 84 2 35.5
23:25 1020 30.12 850 25.1 4.6 40.3 83 1.9 35.5
23:30 1020 30.12 850 25.1 4.7 40.5 83 2 35.6
23:35 1020 30.12 849 25.07 4.7 40.4 81 1.6 34.9
23:40 1020 30.12 850 25.1 4.7 40.4 82 1.9 35.3
23:45 1020 30.12 850 25.1 4.7 40.4 82 1.9 35.4
23:50 1020 30.12 850 25.1 4.7 40.5 81 1.7 35.1
23:55 1020 30.12 850 25.1 4.7 40.5 81 1.8 35.3
24:00 1020 30.12 850 25.1 4.6 40.3 84 2.1 35.7